jump to awards    if you still have a chip please email me at: gerwc5kvp@gmail.com with subject "CHIP"                                       
               12/12/10 Results updated and corrected all turkey runners.                                              


21st Old National Turkey Day Getaway 5k - Chip Timing
Evansville, IN
11/25/2010
Chip Timing by GERWC

Place Div/Tot Name S Ag City R Net Time Pace
===== ======== ================= = == ========== = ========= =====
1 1/33 Ryan Witters M 22 Evansville R 15:36.6 5:02
2 1/47 Chris Hollinden M 28 R 15:45.6 5:05
3 2/33 Brian Joyce M 22 Evansville R 15:52.3 5:07
4 3/33 Wes Camp M 20 Evansville R 16:01.5 5:10
5 4/33 Matthew Martin M 20 Evansville R 16:13.0 5:14
6 1/33 Zac Garrard M 15 Owensboro R 16:51.3 5:26
7 2/47 Graham Paxton M 29 Evansville R 16:53.7 5:27
8 1/30 Shane Thread M 47 Evansville R 16:55.5 5:27
9 1/40 Dean Robert M 43 R 16:58.8 5:28
10 5/33 Andrew Walker M 22 Evansville R 16:59.1 5:29
11 6/33 Andy Davidson M 20 Athens R 17:06.2 5:31
12 2/33 Cain Parker M 16 Petersburg R 17:09.2 5:32
13 7/33 Brent Mesplay M 21 Owensboro R 17:10.8 5:32
14 8/33 Brent Mesplay M 21 Owensboro R 17:10.8 5:32
15 3/33 Tyler Thread M 18 Evansville R 17:15.4 5:34
16 3/47 Michael Carter M 25 Evansville R 17:16.6 5:34
17 4/33 Zack Martin M 15 San Antoni R 17:43.9 5:43
18 5/33 Laramie Immel M 18 Carmi R 17:48.6 5:44
19 6/33 Juanshae Baker M 17 Providence R 17:53.6 5:46
20 9/33 Jordan Bailey M 22 R 17:57.4 5:47
21 7/33 Alec Sievern M 16 Evansville R 18:04.0 5:49
22 10/33 Jason Gansman M 23 Boonville R 18:06.3 5:50
23 8/33 Hunter Motz M 18 Wadesville R 18:11.0 5:52
24 9/33 Noah Lutz M 17 Evansville R 18:15.7 5:53
25 10/33 Tom Boettcher M 17 Evansville R 18:32.9 5:59
26 1/45 Brittany Karges F 21 R 18:38.9 6:01
27 11/33 Connor Wilson M 17 Fort Branc R 18:45.2 6:03
28 4/47 Nick Ivy M 27 Fort Branc R 18:46.6 6:03
29 2/45 Lacy Williams F 24 Haubstadt R 18:48.3 6:04
30 11/33 Dustin Deisher M 22 Mount Carm R 18:49.6 6:04
31 1/35 Timm Wallis M 50 Evansville R 18:53.5 6:05
32 12/33 Will Sievern M 19 Evansville R 18:59.2 6:07
33 13/33 Clay Meyer M 17 Evansville R 19:01.3 6:08
34 14/33 Jonathan Eaton M 15 Evansville R 19:06.1 6:09
35 3/45 Lauren Zeabart F 20 Fort Branc R 19:11.6 6:11
36 1/43 Adam Shaffer M 33 Cincinnati R 19:14.0 6:12
37 2/40 Kenny Heads M 44 Evansville R 19:17.2 6:13
38 15/33 George Mason M 17 R 19:23.2 6:15
39 12/33 Uriah Alldredge M 21 Evansville R 19:24.4 6:15
40 2/43 Bryce Dixon M 32 Newburgh R 19:25.4 6:16
41 3/40 Wayne Ricketts M 43 R 19:30.2 6:17
42 3/43 Jeremy Aydt M 32 Haubstadt R 19:36.9 6:19
43 16/33 Griffin Kelley M 16 Owensboro R 19:39.0 6:20
44 4/45 Leslie Van Winkle F 23 Louisville R 19:41.6 6:21
45 17/33 Evan Ziebell M 17 Evansville R 19:51.4 6:24
46 18/33 Matt Tresslar M 18 Evansville R 19:55.2 6:25
47 1/42 Lauren Minor F 19 R 19:56.0 6:25
48 5/47 Jordan Wilkinson M 27 Evansville R 20:03.4 6:28
49 2/30 Jim Schreifels M 48 Norris Cit R 20:12.9 6:31
50 4/40 Mike Shields M 44 San Antoni R 20:13.1 6:31

Place Div/Tot Name S Ag City R Net Time Pace
===== ======== ================= = == ========== = ========= =====
51 2/42 Kristen Gray F 18 Princeton R 20:15.1 6:32
52 3/42 Amy Mattingly F 17 Chandler R 20:16.2 6:32
53 13/33 Mark Allen M 24 Newburgh R 20:22.7 6:34
54 6/47 David Herron M 26 Evansville R 20:37.6 6:39
55 1/66 Angela Reckelhoff F 29 R 20:41.6 6:40
56 3/30 Eric Lovins M 47 Evansville R 20:47.4 6:42
57 1/36 Jason Moore M 36 Hazleton R 20:48.8 6:42
58 4/42 Maria Mehringer F 15 R 20:54.4 6:44
59 5/42 Courtney Naas F 16 Cynthiana R 20:54.8 6:44
60 5/40 Doug Hamner M 42 Evansville R 20:58.7 6:46
61 6/42 Claire Ehrensbeck F 16 Evansville R 21:03.0 6:47
62 19/33 Josh Hood M 17 Newburgh R 21:03.6 6:47
63 20/33 Nick Ambrose M 19 Evansville R 21:10.7 6:49
64 2/36 Stephen Orsburn M 37 Newburgh R 21:14.1 6:51
65 2/66 Stephine Temple F 27 Jasper R 21:22.4 6:53
66 2/35 Gary Mesplay M 51 Owensboro R 21:29.5 6:56
67 7/47 Arnie Tempel M 28 Bristow R 21:31.2 6:56
68 3/36 Kiley Van Bibber M 38 Haubstadt R 21:33.9 6:57
69 3/66 Katie McKinney F 25 Evansville R 21:34.8 6:57
70 8/47 Justin Schrager M 29 Atlanta R 21:35.8 6:58
71 3/35 Steven Titzer M 50 Evansville R 21:38.9 6:59
72 9/47 Casey Cox M 28 Fort Wayne R 21:39.6 6:59
73 6/40 Darin Hayden M 41 Evansville R 21:40.8 6:59
74 21/33 John Allen M 15 Newburgh R 21:44.2 7:00
75 7/40 Stan Fowler M 42 Evansville R 21:44.6 7:00
76 4/43 Aaron Staser M 32 Indianapol R 21:45.7 7:01
77 4/66 Christina Frye F 27 Champaign R 21:48.4 7:02
78 1/19 Ben Laaper M 58 Newburgh R 21:50.9 7:02
79 10/47 Max Emery M 28 Evansville R 21:51.2 7:03
80 8/40 Shawn McCoy M 41 Evansville R 21:51.4 7:03
81 14/33 Jonathan Tenbarge M 24 Evansville R 21:54.1 7:03
82 22/33 Donovan Wetherhol M 15 Newburgh R 21:58.3 7:05
83 7/42 Natalie Kamp F 17 Evansville R 22:01.8 7:06
84 15/33 Kevin McCall M 22 Evansville R 22:02.6 7:06
85 5/43 Shawn Spear M 32 Haubstadt R 22:04.1 7:07
86 4/30 Scott Bourne M 48 Vicksburg R 22:08.2 7:08
87 4/36 Chad Trapp M 39 Greenfield R 22:08.4 7:08
88 6/43 Waylon Schenk M 30 Evansville R 22:08.8 7:08
89 5/66 Franny Enzler F 25 R 22:09.8 7:09
90 2/19 Dave Enzler M 58 R 22:10.0 7:09
91 6/66 Rachel Patzer F 27 Atlanta R 22:10.2 7:09
92 7/43 Luke Kempf M 31 Evansville R 22:11.2 7:09
93 23/33 Drew Happe M 15 R 22:11.3 7:09
94 1/13 Bill Noll M 62 Evansville R 22:15.2 7:10
95 24/33 Gary Martin M 15 Wadesville R 22:17.0 7:11
96 8/42 Emily Edwards-Bur F 15 Boonville R 22:17.7 7:11
97 4/35 William Hackney, M 53 Madisonvil R 22:18.4 7:11
98 11/47 Josh Wildeman M 26 Evansville R 22:18.7 7:11
99 9/40 Jeffrey Alvey M 43 Evansville R 22:23.5 7:13
100 1/73 Alisha Wargel F 32 Evansville R 22:25.3 7:13

Place Div/Tot Name S Ag City R Net Time Pace
===== ======== ================= = == ========== = ========= =====
101 25/33 Ethan Winstead M 15 Madisonvil R 22:28.9 7:15
102 8/43 Jarrod Craddock M 32 Indianapol R 22:30.9 7:15
103 10/40 Dana Greenfield M 43 Evansville R 22:33.5 7:16
104 12/47 Nicholas Dus M 28 Evansville R 22:39.3 7:18
105 13/47 Brian Nelson M 25 R 22:42.6 7:19
106 1/37 Krista McClure F 37 Evansville R 22:47.2 7:21
107 1/34 Kate Hendrickson F 14 Boonville R 22:48.3 7:21
108 5/30 Bert Earley M 47 R 22:48.8 7:21
109 9/43 Robert Fletcher M 32 Evansville R 22:49.3 7:21
110 2/73 Jamie Van Dewalle F 30 Helena R 22:50.3 7:22
111 2/13 Randy Edwards M 60 Evansville R 22:51.2 7:22
112 3/73 Amanda McBride F 31 R 22:52.1 7:22
113 5/35 Jim Schmidt M 50 Evansville R 22:53.1 7:22
114 2/37 Shelly Volz F 38 Boonville R 22:58.1 7:24
115 6/35 Tom Goedde M 52 Evansville R 22:58.7 7:24
116 7/35 Tom McKinney M 51 Evansville R 22:58.8 7:24
117 5/45 Heather McLaughli F 23 Boonville R 23:04.9 7:26
118 14/47 David Hubbard M 25 Evansville R 23:05.6 7:26
119 8/35 Junior Elpers M 53 Evansville R 23:06.0 7:27
120 6/45 Chelsea Sutton F 21 Evansville R 23:08.1 7:27
121 16/33 Ryan Williams M 23 Carmi R 23:08.8 7:27
122 1/16 Julia Hudson F 53 Lockport R 23:10.5 7:28
123 3/37 Kimberly Castle F 35 Evansville R 23:12.4 7:29
124 11/40 Eric Harper M 42 Haubstadt R 23:14.4 7:29
125 15/47 Greg Newkirk M 29 Vincennes R 23:19.0 7:31
126 7/45 Tracy Wilzbacher F 24 Haubstadt R 23:19.4 7:31
127 10/43 Karl Staser M 30 Indianapol R 23:19.5 7:31
128 8/45 Kelley Short F 20 Evansville R 23:21.5 7:32
129 9/42 Haley Meyer F 18 Evansville R 23:22.6 7:32
130 6/30 Joe Stratman M 45 Evansville R 23:23.9 7:32
131 7/66 Mallory Meyer F 25 Evansville R 23:23.9 7:32
132 16/47 Bill Wargel M 26 Evansville R 23:24.1 7:32
133 10/42 Erin Taylor F 17 Evansville R 23:27.0 7:33
134 4/37 Marva Johnson F 35 Evansville R 23:27.7 7:34
135 11/42 Alisha Kuhlenhoel F 19 Evansville R 23:28.0 7:34
136 Jack Folz R 23:28.2 7:34
137 11/43 Jason Gossett M 34 Evansville R 23:30.0 7:34
138 7/30 Steven Scheller M 49 Evansville R 23:30.1 7:34
139 17/47 Nathaniel Shourds M 27 R 23:30.3 7:34
140 9/35 Clarence Hopf M 54 Haubstadt R 23:31.4 7:35
141 17/33 Justin Brewer M 23 Fort Branc R 23:32.6 7:35
142 4/73 Emily Hesse F 34 Monticello R 23:34.3 7:36
143 12/42 Kelli Duggan F 18 Evansville R 23:34.4 7:36
144 18/47 Trenton Christian M 26 Evansville R 23:35.4 7:36
145 3/19 Chuck Wingert M 58 Evansville R 23:37.8 7:37
146 26/33 Joshua Blank M 17 Evansville R 23:39.2 7:37
147 12/43 Anthony Accardi M 34 Providence R 23:40.5 7:38
148 5/73 Rachel Stoelting F 30 Newburgh R 23:40.9 7:38
149 5/36 Scott Graves M 36 Evansville R 23:42.9 7:38
150 6/73 Molly Krodel F 30 Portage R 23:45.2 7:39

Place Div/Tot Name S Ag City R Net Time Pace
===== ======== ================= = == ========== = ========= =====
151 19/47 Brian Helfrich M 27 Albuquerqu R 23:45.8 7:39
152 18/33 Berry Helfrich M 23 R 23:45.9 7:39
153 1/40 Shane Harper M 10 Haubstadt R 23:51.6 7:41
154 20/47 Brandon Ladley M 28 Evansville R 23:52.4 7:42
155 6/36 Jason Craddock M 35 Grove City R 23:53.6 7:42
156 3/13 Darrell Heineman M 63 Evansville R 23:54.4 7:42
157 2/16 Tami Sparks F 53 Newburgh R 23:55.4 7:42
158 7/73 Samantha Sutton F 32 Providence R 23:55.7 7:43
159 10/35 Cao Pham M 52 Newburgh R 23:56.6 7:43
160 19/33 Daniel Mosbey M 24 Chandler R 23:57.7 7:43
161 13/43 Mike Backer M 30 Boonville R 23:58.8 7:44
162 7/36 Jay Timberlake M 35 Largo R 23:59.0 7:44
163 13/42 Sydney Smith F 15 Boonville R 24:01.3 7:44
164 8/66 Sarah Agler F 29 Brownsburg R 24:02.0 7:45
165 8/36 Chad Bottoms M 37 Evansville R 24:02.6 7:45
166 8/73 Tara Gehlhausen F 34 Evansville R 24:02.6 7:45
167 9/45 Toni Cannon F 24 Owensboro R 24:03.7 7:45
168 20/33 Jon Blankenberger M 21 Haubstadt R 24:04.2 7:45
169 2/34 Abby Dillman F 13 R 24:04.6 7:45
170 27/33 Hunter Brittingha M 15 Patoka R 24:05.5 7:46
171 3/34 Alexia Voyles F 10 Newburgh R 24:06.7 7:46
172 8/30 Todd Gile M 45 Evansville R 24:06.7 7:46
173 4/19 Patrick Shoulders M 57 Evansville R 24:10.1 7:47
174 9/73 Olivia Bredenkamp F 31 El Paso R 24:11.3 7:48
175 9/36 Scott Foreman M 35 Evansville R 24:11.7 7:48
176 10/45 Ali Murtaugh F 24 Evansville R 24:12.4 7:48
177 1/7 Robert Claridge M 69 Oakland Ci R 24:12.6 7:48
178 14/42 Jordan Van Winkle F 17 Newburgh R 24:14.1 7:48
179 14/43 Derek Hall M 33 Evansville R 24:14.7 7:49
180 11/35 Brian Turner M 51 R 24:16.8 7:49
181 12/40 Leo Meskis M 41 Indianapol R 24:18.0 7:50
182 9/66 Courtney Austin F 26 Evansville R 24:20.7 7:51
183 11/45 Alyssa Johnson F 24 Boonville R 24:21.7 7:51
184 15/43 William Brown M 31 Sumter R 24:23.6 7:52
185 21/47 Matthew Snodgrass M 27 Boonville R 24:24.1 7:52
186 9/30 Mark Miller M 46 Evansville R 24:25.6 7:52
187 10/36 Jeff Rothschild M 38 Evansville R 24:25.7 7:52
188 10/73 Crystal Evetts F 30 Francisco R 24:25.8 7:52
189 2/40 William Spradlin M 13 Evansville R 24:27.1 7:53
190 12/45 Alicia Chris Deig F 24 Indianapol R 24:31.5 7:54
191 22/47 Phillip Dewolf M 27 Berwyn Hei R 24:32.1 7:54
192 23/47 Matthew Holzmeyer M 27 Evansville R 24:32.1 7:54
193 1/39 Mary Jane Beckort F 41 Tell City R 24:32.5 7:54
194 21/33 Aleks Mortensen M 23 Evansville R 24:33.3 7:55
195 5/19 Gene Koch M 55 Newburgh R 24:39.3 7:57
196 22/33 Justin Boudreaux M 21 Webb City R 24:39.7 7:57
197 10/66 Hannah Raymond F 26 R 24:45.0 7:58
198 6/19 Paul Raymond M 58 R 24:45.4 7:59
199 2/39 Karen Adams F 43 Fort Branc R 24:48.3 8:00
200 3/39 Lori Kane F 44 Evansville R 24:49.2 8:00

Place Div/Tot Name S Ag City R Net Time Pace
===== ======== ================= = == ========== = ========= =====
201 11/66 Kristi Wilsman F 25 Evansville R 24:51.1 8:00
202 4/39 Anne Basden F 42 Evansville R 24:51.3 8:00
203 11/73 Marissa Craddock F 34 Grove City R 24:52.0 8:01
204 3/40 Jonathon Walton M 14 Evansville R 24:52.1 8:01
205 12/35 Jeffrey Hayden M 52 Evansville R 24:52.6 8:01
206 12/66 Mallory Maher F 25 Bloomingto R 24:52.9 8:01
207 7/19 Tom Stofleth M 56 Evansville R 24:55.9 8:02
208 13/35 Bob Fodstad M 53 Evansville R 24:58.3 8:03
209 13/40 Andrew Herbertz M 44 Mount Vern R 24:58.4 8:03
210 2/7 Mike Van Cleve M 66 Mount Vern R 24:58.6 8:03
211 13/66 Cari Lewis F 26 R 24:59.3 8:03
212 14/40 Donald Taber M 43 Evansville R 25:00.5 8:03
213 23/33 Bryant Lowry M 20 Newburgh R 25:02.4 8:04
214 13/45 Amanda Lowry F 24 Newburgh R 25:03.0 8:04
215 24/47 Scott Bosma M 29 Newburgh R 25:05.5 8:05
216 14/66 Claire Bosma F 27 Newburgh R 25:05.8 8:05
217 1/1 Drew Swonder M 47 Evansville W 25:05.8 8:05
218 4/34 Taylor Krieg F 14 Pittsboro R 25:06.5 8:05
219 10/30 David Krieg M 47 Pittsboro R 25:06.9 8:06
220 24/33 Philip Weinzapfel M 24 Evansville R 25:08.3 8:06
221 15/66 Jackie Tillman F 28 Lakewood R 25:08.7 8:06
222 12/73 Michelle Lenahan F 30 Evansville R 25:08.8 8:06
223 13/73 Katie Ott F 33 Evansville R 25:11.1 8:07
224 16/43 Ryan Merriwether M 30 Evansville R 25:11.3 8:07
225 4/13 Bill Egli M 60 R 25:12.7 8:07
226 11/30 Rick Stippler M 47 Evansville R 25:14.2 8:08
227 15/42 Madi Maher F 17 Boonville R 25:15.4 8:08
228 14/35 Paul Lusty M 50 Washington R 25:17.9 8:09
229 25/47 Ryan Anthony M 29 Evansville R 25:19.5 8:10
230 5/39 Kristi Kimberlin F 42 Indianapol R 25:20.5 8:10
231 26/47 Andrew Ungethiem M 25 Evansville R 25:20.8 8:10
232 4/40 Luke Mattern M 11 Wabash R 25:21.1 8:10
233 14/45 Amy Rexing F 21 Evansville R 25:21.9 8:10
234 14/73 Andrea Daub F 31 Evansville R 25:23.1 8:11
235 28/33 Ben Richardson M 19 Evansville R 25:24.5 8:11
236 16/66 Misty Bishop F 27 Mount Vern R 25:24.6 8:11
237 1/28 Kendra Schoffstal F 47 Haubstadt R 25:24.7 8:11
238 3/7 Ray Stuckey M 68 Patoka R 25:24.8 8:11
239 17/66 Megan Jochem F 25 Evansville R 25:24.8 8:11
240 29/33 M. Alexandro Agoa M 15 Evansville R 25:25.9 8:12
241 25/33 Michael Smith M 20 Cynthiana R 25:27.7 8:12
242 12/30 Jeff Ambrose M 47 Evansville R 25:28.7 8:13
243 15/45 Jennifer Smith F 21 Cynthiana R 25:28.8 8:13
244 15/73 Kari Jamerson F 33 Evansville R 25:28.8 8:13
245 13/30 David Schmitt M 45 Cynthiana R 25:29.0 8:13
246 Peter Naylor M Evansville R 25:29.2 8:13
247 16/42 Jessica Smith F 17 Cynthiana R 25:29.4 8:13
248 11/36 Chris Hosack M 35 Newburgh R 25:31.3 8:13
249 17/43 Jason Reckelhoff M 33 Evansville R 25:31.9 8:14
250 16/73 Kimberly Townsend F 32 Evansville R 25:33.5 8:14

Place Div/Tot Name S Ag City R Net Time Pace
===== ======== ================= = == ========== = ========= =====
251 14/30 Andy Kinsey M 48 Franklin R 25:33.6 8:14
252 15/30 Mike Tresslar M 48 Evansville R 25:34.9 8:15
253 18/43 Christopher Shell M 32 Evansville R 25:35.1 8:15
254 12/36 Corey Overby M 35 Evansville R 25:35.5 8:15
255 5/40 Jacob Tresslar M 12 Evansville R 25:35.8 8:15
256 2/28 Suzanne Stetter F 48 Huntingbur R 25:39.8 8:16
257 17/73 Emily Parke F 30 Rockport R 25:40.0 8:16
258 18/66 Jennifer Bayer F 26 Evansville R 25:43.0 8:17
259 16/45 Emily Immel F 23 Carmi R 25:44.5 8:18
260 13/36 Rodgers Greenwalt M 39 Newburgh R 25:45.1 8:18
261 14/36 Chad Hart M 35 Boonville R 25:45.7 8:18
262 5/13 Paul E. McAuliffe M 61 Evansville R 25:46.3 8:18
263 5/34 Melanie Noble F 11 Marion R 25:46.3 8:18
264 6/40 Aaron Hesse M 6 Monticello R 25:48.6 8:19
265 5/37 Cathy Ferris F 36 Evansville R 25:49.2 8:19
266 15/36 Nathan Posey M 36 Boonville R 25:52.0 8:20
267 19/43 Curtis Mason M 31 Kansas Cit R 25:53.0 8:20
268 15/40 Bruce Heller M 43 R 25:54.1 8:21
269 18/73 Meredith Kempf F 30 Evansville R 25:54.6 8:21
270 16/40 Patrick Davis M 44 Poseyville R 25:55.2 8:21
271 19/73 Michelle Johns F 32 Fort Wayne R 25:56.1 8:21
272 15/35 Tom Stratman M 54 Evansville R 25:56.4 8:21
273 20/43 Derek Zint M 30 Chandler R 25:58.0 8:22
274 17/45 Armande Hufnagel F 21 Evansville R 25:58.3 8:22
275 6/39 Cheryl Gray F 43 Evansville R 25:58.7 8:22
276 7/39 Shelley Mehringer F 43 R 26:00.8 8:23
277 6/37 Jennifer Maggione F 38 Jacksonvil R 26:01.4 8:23
278 6/34 Kiersten Britting F 14 Patoka R 26:01.7 8:23
279 20/73 Jennifer Hopf F 31 Fort Branc R 26:03.9 8:24
280 8/39 Krista Harms F 44 Albion R 26:06.1 8:25
281 16/30 John Devine Jr. M 49 Mount Vern R 26:08.0 8:25
282 21/43 Cheyenne Buse M 33 Lynnville R 26:08.8 8:25
283 16/36 Shane Stratton M 37 Nashville R 26:10.5 8:26
284 17/40 Matthew Johnson M 41 Boonville R 26:11.8 8:26
285 17/36 Mike Mattern M 39 Wabash R 26:11.8 8:26
286 17/42 Jennifer Naas F 18 Cynthiana R 26:12.8 8:27
287 26/33 Alexander Kipp M 21 Newburgh R 26:15.6 8:28
288 7/40 Chase Timberlake M 11 Largo R 26:17.2 8:28
289 7/37 Jennifer Watkins F 36 Evansville R 26:17.4 8:28
290 17/30 John Dillard M 45 Newburgh R 26:18.6 8:29
291 27/33 Daniel Lehman M 24 R 26:19.2 8:29
292 28/33 David Edwards M 24 Elberfeld R 26:19.5 8:29
293 18/45 Breanna Creek F 23 Haubstadt R 26:22.3 8:30
294 30/33 Colton Heads M 15 Evansville R 26:23.0 8:30
295 19/66 Leslie Goth F 28 Evansville R 26:24.5 8:30
296 16/35 Steve Shoemaker M 54 R 26:26.6 8:31
297 19/45 Julie Clark F 23 Evansville R 26:27.6 8:31
298 20/45 Jenna Denstorff F 24 Evansville R 26:27.7 8:32
299 8/37 Delia Flores F 36 Evansville R 26:28.2 8:32
300 22/43 Brian Revalee M 31 Evansville R 26:28.5 8:32

Place Div/Tot Name S Ag City R Net Time Pace
===== ======== ================= = == ========== = ========= =====
301 3/28 Joan Duggan F 46 Evansville R 26:29.3 8:32
302 21/45 Jennifer Balbach F 23 Evansville R 26:30.2 8:32
303 6/13 Joseph Williams M 63 Newburgh R 26:30.3 8:32
304 7/34 Amanda Blankenber F 13 Poseyville R 26:30.6 8:32
305 18/42 Emily Blankenberg F 15 Poseyville R 26:31.1 8:33
306 8/19 Jeffrey Ruthenbur M 58 Evansville R 26:36.7 8:34
307 23/43 James Hicks M 31 Valparaiso R 26:36.9 8:34
308 9/39 Lori Kramer F 40 Haubstadt R 26:37.1 8:35
309 27/47 Matthew Young M 26 Medina R 26:37.6 8:35
310 20/66 Holly Dewolf F 26 Berwyn Hei R 26:38.7 8:35
311 8/40 Michael Dillard M 14 Newburgh R 26:41.0 8:36
312 21/73 Trinity Gibbs F 33 Mount Vern R 26:41.7 8:36
313 17/35 Tom Bockting M 50 Newburgh R 26:41.9 8:36
314 9/40 Kurt Osborne M 12 Evansville R 26:43.5 8:37
315 22/45 Erika Sutton F 23 Evansville R 26:47.8 8:38
316 28/47 Brian Rexing M 26 R 26:48.6 8:38
317 1/4 Karen Carey F 60 Evansville R 26:53.3 8:40
318 10/39 Julie Hall F 41 Mount Vern R 26:53.9 8:40
319 18/40 Tim Everley M 44 Wadesville R 26:56.5 8:41
320 18/36 Matthew Hesse M 35 Monticello R 26:57.4 8:41
321 18/35 Kevin Holzmeyer M 50 Evansville R 27:04.5 8:43
322 4/28 Amy Miller F 48 Evansville R 27:06.9 8:44
323 11/39 Dana Voyles F 41 Newburgh R 27:07.6 8:44
324 23/45 Laura Chiang F 23 Memphis R 27:09.3 8:45
325 22/73 Lorrie Weiss F 33 Evansville R 27:11.4 8:46
326 19/35 Jeff Culver M 50 Evansville R 27:12.0 8:46
327 23/73 Nicki Willis F 32 Newburgh R 27:12.1 8:46
328 18/30 Larry Goad M 49 Evansville R 27:12.8 8:46
329 3/16 Martha Immel F 50 Carmi R 27:16.2 8:47
330 12/39 Ellen White F 41 Newburgh R 27:18.1 8:48
331 10/40 Sam Karcher M 13 Bloomingto R 27:18.8 8:48
332 24/45 Abigail Knight F 23 Evansville R 27:19.4 8:48
333 13/39 Leanne Englert F 42 Evansville R 27:19.5 8:48
334 11/40 Evan Englert M 10 Evansville R 27:19.5 8:48
335 21/66 Jennifer Moore F 29 Naperville R 27:19.9 8:48
336 29/33 Ben Clutter M 23 West Lafay R 27:20.1 8:48
337 12/40 Colton Worstell M 9 Chandler R 27:20.3 8:48
338 19/36 Dan Worstell M 38 Chandler R 27:21.0 8:49
339 22/66 Jennifer Clark F 28 Chicago R 27:21.0 8:49
340 20/36 Mark Worstell M 39 Sumner R 27:23.2 8:49
341 5/28 Angee Casson F 46 Evansville R 27:25.0 8:50
342 29/47 Matt Bondurant M 28 Superior R 27:25.1 8:50
343 19/30 Tim Casson M 45 Evansville R 27:25.3 8:50
344 9/37 Christa Mooney F 37 Evansville R 27:25.6 8:50
345 24/73 Erin Miller F 30 Cincinnati R 27:31.6 8:52
346 21/36 Mike Miller M 39 Evansville R 27:33.0 8:53
347 24/43 Thomas Smoot M 34 Holland R 27:33.7 8:53
348 13/40 Dylan Klipsch M 11 R 27:37.1 8:54
349 9/19 Mike Horn M 55 Evansville R 27:37.2 8:54
350 14/40 Caleb Peter M 10 Prairie Ci R 27:38.4 8:54

Place Div/Tot Name S Ag City R Net Time Pace
===== ======== ================= = == ========== = ========= =====
351 22/36 Scott Bogan M 38 Newburgh R 27:39.1 8:54
352 19/40 Ben Klipsch M 43 R 27:40.1 8:55
353 15/40 Owen Klipsch M 11 R 27:40.2 8:55
354 Kyle Lewis M Evansville R 27:40.3 8:55
355 25/73 Amy Conaway F 30 Evansville R 27:40.4 8:55
356 Rachelle Chrisman W 41 Norris Cit R 27:42.9 8:56
357 23/66 Brittani Clark F 25 Evansville R 27:44.6 8:56
358 30/47 Bryan Seibert M 29 Fort Branc R 27:46.1 8:57
359 24/66 Rena Nurrenbern F 27 Francisco R 27:46.6 8:57
360 20/35 Nathan Decker M 52 South Have R 27:47.2 8:57
361 20/40 Terry Martin M 43 San Antoni R 27:48.1 8:57
362 25/66 Laura Schnur F 26 Indianapol R 27:48.2 8:57
363 10/37 Amber Hale F 36 Evansville R 27:48.5 8:58
364 19/42 Amy Walker F 17 Evansville R 27:53.7 8:59
365 25/45 Pamela Weinzapfel F 21 Mount Vern R 27:53.9 8:59
366 21/35 Andy Howard M 51 Elberfeld R 27:54.5 8:59
367 16/40 Spencer Beyers M 14 Marietta R 27:55.1 9:00
368 21/40 Jeffrey Evans M 43 Lynnville R 27:56.6 9:00
369 26/66 Tiffany Meinschei F 27 Mount Vern R 27:59.2 9:01
370 23/36 Chris Morlan M 36 Trenton R 27:59.5 9:01
371 27/66 Mina Smith F 29 Evansville R 27:59.9 9:01
372 22/40 Mike Boatman M 42 R 28:01.9 9:02
373 20/30 Martin Scheuer M 46 Newburgh R 28:02.5 9:02
374 8/34 Lexus Brittingham F 11 Patoka R 28:02.5 9:02
375 17/40 Brooks Mattingly M 13 Evansville R 28:09.7 9:04
376 20/42 Hannah Delucio F 18 Evansville R 28:11.1 9:05
377 26/73 Kathleen Moran F 30 Chicago R 28:15.7 9:06
378 25/43 Daniel Schnur M 32 Evansville R 28:16.3 9:06
379 27/73 Kate Simmons F 30 Carmi R 28:17.5 9:07
380 10/19 Ken Rogers M 55 Henderson R 28:18.0 9:07
381 26/43 Robin Spear M 32 Haubstadt R 28:18.2 9:07
382 27/43 Sean Radke M 33 Durham R 28:18.2 9:07
383 28/73 Julie Morgan F 31 Rockport R 28:19.4 9:07
384 23/40 Michael Broshears M 40 Evansville R 28:19.4 9:07
385 28/66 Morgan Maher F 27 Maryland H R 28:20.7 9:08
386 14/39 Barb Dayton F 44 Newburgh R 28:25.3 9:09
387 22/35 David Burton M 54 R 28:27.9 9:10
388 7/13 Terry Martin M 64 Evansville R 28:28.0 9:10
389 29/73 Jane Okes F 31 Evansville R 28:28.5 9:10
390 24/36 Ryan Schoon M 36 Mount Carm R 28:28.6 9:10
391 21/42 Shelby Mattingly F 19 Chandler R 28:29.1 9:11
392 25/36 Dan Evetts M 36 Francisco R 28:29.8 9:11
393 21/30 Kerry Mattingly M 48 Evansville R 28:30.1 9:11
394 26/36 Brendon Falconer M 35 Newburgh R 28:31.7 9:11
395 29/66 Stephanie Shourds F 25 R 28:33.6 9:12
396 24/40 Brian Spradlin M 43 Evansville R 28:33.6 9:12
397 22/42 Abby Kuykendall F 19 Carmi R 28:33.9 9:12
398 28/43 Josh Payne M 32 R 28:35.5 9:13
399 23/42 Hannah Wild F 16 R 28:38.9 9:14
400 9/34 Sarah Wild F 14 R 28:39.6 9:14

Place Div/Tot Name S Ag City R Net Time Pace
===== ======== ================= = == ========== = ========= =====
401 11/37 Robin Fowler F 39 Evansville R 28:40.5 9:14
402 10/34 A. J. Schnicker F 11 Ellery R 28:41.3 9:15
403 30/73 Alma Meacham F 32 Evansville R 28:41.8 9:15
404 22/30 Doug Kelsey M 48 Normal R 28:42.5 9:15
405 31/73 Kerri Schu F 34 Evansville R 28:42.6 9:15
406 23/35 Marco Delucio M 51 Evansville R 28:42.8 9:15
407 11/34 Lexie Turnock F 12 R 28:43.7 9:15
408 4/16 Susan Hopf F 53 Haubstadt R 28:44.4 9:16
409 24/42 Megan Baehl F 16 Poseyville R 28:44.8 9:16
410 12/34 Sophie Keller F 11 Bloomingto R 28:45.5 9:16
411 25/42 Abby Karcher F 16 Bloomingto R 28:46.1 9:16
412 23/30 Keith Wild M 45 R 28:46.1 9:16
413 25/40 Jeff Anthony M 40 Evansville R 28:46.6 9:16
414 13/34 Mady Keller F 14 Bloomingto R 28:46.6 9:16
415 32/73 Mary Ann Cisneros F 32 Evansville R 28:46.8 9:16
416 6/28 Anna McGhee F 45 Evansville R 28:46.9 9:16
417 30/66 Monica Sprinkle F 27 Fort Branc R 28:52.2 9:18
418 11/19 Bob Wise M 57 Sheridan R 28:54.6 9:19
419 31/66 Meagan Farley F 25 Evansville R 28:55.3 9:19
420 31/47 Bryce Abbey M 27 Princeton R 28:56.3 9:19
421 33/73 Michelle Addingto F 32 Paducah R 28:56.4 9:19
422 32/47 Stephen Obenchain M 29 Newburgh R 28:56.6 9:19
423 12/19 Terry Swartz M 55 Evansville R 28:56.8 9:19
424 32/66 Sara Abbey F 26 Princeton R 28:57.4 9:20
425 12/37 Ellen Adler F 35 Evansville R 28:57.9 9:20
426 Jason Hale M Evansville R 29:00.5 9:21
427 29/43 Brian Cissell M 34 R 29:01.2 9:21
428 4/7 Philip Lieberman M 65 Evansville R 29:01.5 9:21
429 18/40 Maxwell Renay-Lop M 9 Evansville R 29:01.6 9:21
430 15/39 Jennifer Wagner F 40 Evansville R 29:02.5 9:21
431 26/40 Mark Gordon M 44 Evansville R 29:03.4 9:22
432 34/73 Amanda Hale F 30 Evansville R 29:04.7 9:22
433 26/45 Leah McCracken F 22 Evansville R 29:08.0 9:23
434 33/66 Lisa Collins F 28 Evansville R 29:10.2 9:24
435 13/37 Danielle Falconer F 35 Newburgh R 29:11.2 9:24
436 34/66 Jennifer Collins F 27 Evansville R 29:11.6 9:24
437 14/37 Allison Lancaster F 36 Evansville R 29:12.1 9:24
438 33/47 Aaron Schnur M 27 Indianapol R 29:12.7 9:25
439 26/42 Cassidy Osborne F 15 Evansville R 29:14.6 9:25
440 27/36 Matt Carey M 37 Evansville R 29:14.7 9:25
441 28/36 Simon Cisneros M 35 Evansville R 29:15.1 9:25
442 35/73 Rachel Ferguson F 32 Evansville R 29:15.4 9:25
443 2/4 Deedra Benthall F 64 Danville R 29:16.8 9:26
444 27/45 Brooke McCartney F 21 R 29:16.8 9:26
445 35/66 Stephanie Higgins F 29 Indianapol R 29:16.9 9:26
446 16/39 Jenny Osborne F 42 Evansville R 29:17.8 9:26
447 36/66 Christy Skie F 29 Evansville R 29:18.1 9:26
448 15/37 Christina Staggs F 35 Nashville R 29:18.2 9:26
449 30/43 Chad Beckham M 32 Evansville R 29:21.1 9:27
450 24/35 Scott Boudreaux M 50 Webb City R 29:21.5 9:27

Place Div/Tot Name S Ag City R Net Time Pace
===== ======== ================= = == ========== = ========= =====
451 28/45 Hadley Thompson F 22 Evansville R 29:21.6 9:27
452 27/42 Laura Rexing F 15 Evansville R 29:21.7 9:28
453 5/16 Lauren Jones F 50 Evansville R 29:23.5 9:28
454 24/30 Brent Newhouse M 47 Newburgh R 29:26.7 9:29
455 36/73 Brandy Prow F 33 Boonville R 29:28.5 9:30
456 29/45 Sasha Cason F 20 Evansville R 29:29.0 9:30
457 28/42 Nicole Martin F 17 Boonville R 29:29.3 9:30
458 37/66 Ashley Thompson F 27 Mount Vern R 29:30.0 9:30
459 30/45 Hannah Wise F 24 Evansville R 29:32.3 9:31
460 34/47 Justin Poag M 28 Jasper R 29:37.6 9:33
461 38/66 Laura Oser F 25 Evansville R 29:41.7 9:34
462 16/37 Amy Berkley F 39 Newburgh R 29:48.2 9:36
463 17/37 Emily Zengler Mil F 35 Evansville R 29:49.2 9:36
464 37/73 Stacy Loveless F 33 R 29:50.7 9:37
465 14/34 MacY Broshears F 7 Evansville R 29:53.6 9:38
466 18/37 Amy Swegan F 35 Aurora R 29:56.7 9:39
467 25/35 Rick Lowry M 54 Newburgh R 29:59.0 9:40
468 38/73 Shannon Sellers F 31 Newburgh R 30:00.7 9:40
469 19/37 Kristy Herr F 36 Chandler R 30:00.7 9:40
470 39/66 Julie Christian F 28 Evansville R 30:01.6 9:40
471 19/40 Josh Kramer M 10 Haubstadt R 30:03.8 9:41
472 17/39 Krista Haas F 40 Newburgh R 30:07.8 9:42
473 8/13 Steven Tuttle M 62 Owensboro R 30:10.6 9:43
474 20/37 Dana Clewlow-Bray F 36 Evansville R 30:11.5 9:44
475 21/37 Kindra Schnicker F 37 Ellery R 30:14.6 9:45
476 31/43 Dan Titzer M 34 Newburgh R 30:16.3 9:45
477 39/73 Mary Pearce F 30 Albion R 30:16.4 9:45
478 29/36 Brian Schu M 39 Evansville R 30:17.8 9:46
479 25/30 Bart Hahn M 46 Evansville R 30:18.8 9:46
480 20/40 Connor Trapp M 13 Greenfield R 30:22.1 9:47
481 40/73 Jami Mason F 34 Evansville R 30:22.5 9:47
482 40/66 Bethany White F 29 R 30:22.9 9:47
483 7/28 Jennifer Genet F 46 Boonville R 30:23.7 9:47
484 8/28 Diana Weinzapfel F 49 Evansville R 30:26.3 9:48
485 9/28 Ronda McCall F 49 Evansville R 30:30.1 9:50
486 31/45 Sarah Wade F 22 Evansville R 30:30.6 9:50
487 10/28 Sarah Dalp F 47 Evansville R 30:30.7 9:50
488 35/47 Eric Wade M 25 Evansville R 30:33.3 9:51
489 6/16 Linda Reinert F 53 Newburgh R 30:34.1 9:51
490 41/73 Shannon Hart F 34 Boonville R 30:38.1 9:52
491 41/66 Ashley Grasso F 29 Evansville R 30:40.3 9:53
492 26/35 John Schnur M 54 Newburgh R 30:42.0 9:53
493 30/36 Alex Johns M 38 Fort Wayne R 30:43.3 9:54
494 31/36 Mark Johnson M 39 Evansville R 30:44.1 9:54
495 15/34 Caroline Schulthe F 10 Evansville R 30:44.2 9:54
496 18/39 Nina Schultheis F 40 Evansville R 30:44.2 9:54
497 27/40 Brad Schultheis M 40 Evansville R 30:44.6 9:54
498 42/73 Michelle Fortune F 33 Poseyville R 30:44.9 9:54
499 1/7 Julie Phillips F 55 Evansville R 30:45.1 9:54
500 32/45 Elizabeth Allen F 21 Newburgh R 30:45.4 9:54

Place Div/Tot Name S Ag City R Net Time Pace
===== ======== ================= = == ========== = ========= =====
501 19/39 Amy Dillard F 43 Newburgh R 30:45.5 9:54
502 11/28 Sue Anne Mullen F 49 Evansville R 30:46.6 9:55
503 28/40 Christopher Swega M 40 R 30:47.6 9:55
504 27/35 Bill Richardson M 53 Evansville R 30:48.3 9:55
505 43/73 Amanda Overby F 33 Evansville R 30:50.7 9:56
506 12/28 Rosa Ayscue F 46 Keensburg R 30:52.0 9:57
507 7/16 Vickie Forturne F 54 Haubstadt R 30:54.3 9:57
508 44/73 Mandy Marx F 33 Elberfeld R 30:54.6 9:57
509 42/66 Heather Wolfe F 25 Terre Haut R 30:55.5 9:58
510 45/73 Kelly Hamilton F 30 Evansville R 30:55.9 9:58
511 28/35 Warren Devine M 54 Fort Branc R 30:56.6 9:58
512 3/4 Clare Ruthenburg F 62 Portland R 31:00.1 9:59
513 8/16 Holly Stratman F 53 Evansville R 31:00.3 9:59
514 43/66 Tricia Easley F 28 R 31:00.3 9:59
515 21/40 Gabe Timberlake M 9 Largo R 31:05.0 10:01
516 22/37 Mary Timberlake F 35 Largo R 31:06.2 10:01
517 1/1 Genevieve Perry F 73 Evansville R 31:06.8 10:01
518 32/43 Jeff Willis M 34 Newburgh R 31:06.9 10:01
519 29/35 Rusty Wildeman M 52 Evansville R 31:10.3 10:02
520 30/35 Scott Zachary M 54 Louisville R 31:13.0 10:03
521 46/73 Alyson O'Daniel F 33 Evansville R 31:15.3 10:04
522 29/42 Alexandra Everley F 18 Wadesville R 31:15.8 10:04
523 13/28 Dawn Conrad F 47 R 31:16.8 10:05
524 31/35 David Yates M 51 Newburgh R 31:18.2 10:05
525 14/28 Shari Kirkpatrick F 47 Haubstadt R 31:21.7 10:06
526 44/66 Krystal Ungethiem F 25 Evansville R 31:24.1 10:07
527 47/73 Kelly Reckelhoff F 30 Evansville R 31:26.6 10:08
528 15/28 Carrie Bender F 49 Evansville R 31:27.2 10:08
529 33/45 Emily Webster F 20 Evansville R 31:27.4 10:08
530 1/2 Linda Swonder F 50 Evansville W 31:32.0 10:09
531 48/73 Sherry Roberts F 32 Evansville R 31:33.5 10:10
532 34/45 Joy Schwenk F 24 Evansville R 31:34.2 10:10
533 30/42 Erica Wise F 19 Evansville R 31:34.2 10:10
534 49/73 Jill Johnson F 32 Evansville R 31:35.5 10:11
535 16/28 Mary Devine F 46 Mount Vern R 31:36.8 10:11
536 33/43 Sean Lehman M 33 Evansville R 31:38.3 10:11
537 50/73 Julie Osburn F 32 Evansville R 31:38.3 10:11
538 26/30 Dennis Batts M 45 Boonville R 31:38.4 10:12
539 16/34 Madison Messier F 13 Milton R 31:40.7 10:12
540 1/2 Annie Phillips F 67 Chandler R 31:45.5 10:14
541 51/73 Tiffany Lovell F 30 Evansville R 31:48.9 10:15
542 17/28 Sara Tucker F 49 Evansville R 31:49.9 10:15
543 18/28 Sigrid Norman F 46 Providence R 31:50.9 10:16
544 20/39 Ladonna Turpin F 43 Evansville R 31:53.2 10:16
545 23/37 Stephanie Taber F 37 Evansville R 31:53.7 10:16
546 31/42 Abigail Turner F 16 Evansville R 31:55.8 10:17
547 17/34 Abbey Gile F 11 Evansville R 31:56.9 10:17
548 21/39 Penny Beyers F 41 Marietta R 31:57.9 10:18
549 1/3 Ambrose Wilson Iv M 60 Midway W 31:58.4 10:18
550 18/34 Nicole Hesse F 8 Monticello R 32:02.5 10:19

Place Div/Tot Name S Ag City R Net Time Pace
===== ======== ================= = == ========== = ========= =====
551 24/37 Janel Bowen F 39 Evansville R 32:03.6 10:20
552 25/37 Jill Krug F 37 Evansville R 32:04.3 10:20
553 52/73 Michelle Irwin F 30 Evansville R 32:06.6 10:21
554 45/66 Lauren Hahn F 28 Louisville R 32:12.7 10:23
555 13/19 Michael Hahn M 59 Evansville R 32:13.1 10:23
556 36/47 Adam Goth M 27 Evansville R 32:16.3 10:24
557 22/39 Karen Bourne F 40 Vicksburg R 32:17.2 10:24
558 32/42 Sara Blankenberge F 18 Poseyville R 32:18.1 10:24
559 34/43 Charles O'Daniel M 33 Evansville R 32:28.5 10:28
560 19/28 Jill Johns F 46 Evansville R 32:30.4 10:28
561 37/47 Mathew Gerth M 28 R 32:30.7 10:28
562 46/66 Jessica Gerth F 28 Evansville R 32:31.5 10:29
563 47/66 Katie Omohundro F 28 Evansville R 32:34.9 10:30
564 53/73 Cindy Dale F 34 Evansville R 32:35.4 10:30
565 26/37 Cheryl Graves F 38 Evansville R 32:35.6 10:30
566 33/42 Alyssa Brittingha F 17 Patoka R 32:39.8 10:31
567 20/28 Lori Raser F 48 Cincinnati R 32:40.5 10:31
568 48/66 Nikki Hutchinson F 27 Evansville R 32:42.1 10:32
569 32/36 Detrick Johnson M 38 Evansville R 32:43.3 10:32
570 32/35 Chris Smith M 52 R 32:45.1 10:33
571 49/66 Amanda Kipp F 27 Evansville R 32:50.6 10:35
572 35/43 Ted Ziemer M 33 Evansville R 32:50.9 10:35
573 54/73 Billie Berry F 33 R 32:54.3 10:36
574 30/33 Alexander Chiang M 24 Memphis R 33:00.3 10:38
575 29/40 Marty Mattingly M 42 Evansville R 33:00.9 10:38
576 22/40 Jack Mattingly M 9 Evansville R 33:01.0 10:38
577 33/36 Eric Jones M 39 Cincinnati R 33:05.2 10:39
578 23/39 Wendy Bowles F 41 Newburgh R 33:05.3 10:39
579 4/4 Elizabeth Kessler F 63 Evansville R 33:08.4 10:40
580 55/73 Sarah McKeen F 31 Chicago R 33:08.6 10:41
581 38/47 Scott Maloney M 27 Chicago R 33:09.4 10:41
582 56/73 Kelly Miller F 31 Evansville R 33:09.8 10:41
583 50/66 MacKenzie Maloney F 26 Chicago R 33:10.1 10:41
584 9/16 Joyce Wilzbacher F 51 Haubstadt R 33:11.8 10:42
585 27/37 Crystal Loudermil F 37 Hendersonv R 33:11.8 10:42
586 28/37 Jennifer Lott F 37 Newburgh R 33:13.9 10:42
587 23/40 Ty Johnson M 13 Boonville R 33:14.2 10:42
588 51/66 Angela Harris F 29 R 33:14.3 10:42
589 35/45 Margaret Musgrave F 21 Evansville R 33:18.0 10:44
590 36/45 Lauren Schmitt F 21 Wadesville R 33:18.5 10:44
591 57/73 Christina Gandy F 33 Nashville R 33:18.8 10:44
592 37/45 Natalie Schmitt F 24 Wadesville R 33:18.8 10:44
593 14/19 Bob Musgrave M 55 Evansville R 33:19.5 10:44
594 30/40 Jeff Osborne M 41 Evansville R 33:22.4 10:45
595 34/42 Brooke Geiser F 16 Henderson R 33:22.8 10:45
596 31/33 Michael Messier M 15 Milton R 33:25.9 10:46
597 5/7 David Orsburn M 67 Newburgh R 33:28.7 10:47
598 36/43 Jeremy Christian M 30 New Harmon R 33:29.0 10:47
599 24/40 Dylan Panzica M 9 South Bend R 33:29.7 10:47
600 37/43 Anthony Panzica M 33 South Bend R 33:30.2 10:48

Place Div/Tot Name S Ag City R Net Time Pace
===== ======== ================= = == ========== = ========= =====
601 25/40 Dalton Pugh M 13 Evansville R 33:30.3 10:48
602 35/42 Randi Conrad F 19 R 33:31.1 10:48
603 58/73 Lisa Ziemer F 33 Evansville R 33:31.6 10:48
604 31/40 Chris Pugh M 43 Evansville R 33:31.7 10:48
605 29/37 Natalee Turpin F 38 Burns R 33:32.5 10:48
606 26/40 Mason Sweeney M 7 Carmel R 33:32.8 10:48
607 24/39 Yvette Wassmer F 44 Evansville R 33:34.0 10:49
608 19/34 Sheyenne Heuring F 10 Boonville R 33:34.9 10:49
609 52/66 Sarah Panzica F 25 South Bend R 33:35.5 10:49
610 9/13 John Stanley M 60 Evansville R 33:37.6 10:50
611 25/39 Devona Heuring F 42 Boonville R 33:37.8 10:50
612 10/16 Jane Ballard F 54 Evansville R 33:39.4 10:50
613 6/7 Cecil Pugh M 69 Evansville R 33:42.1 10:51
614 53/66 Mindy Boehr F 29 Indianapol R 33:49.7 10:54
615 1/3 Cathy Aders F 33 Evansville W 33:51.3 10:54
616 20/34 Amy Goris F 11 Boonville R 33:54.4 10:55
617 27/40 Matthew Goris M 9 Boonville R 33:54.8 10:55
618 32/40 David Rosado M 44 Jonestown R 33:55.5 10:56
619 38/45 Anissa Pugh F 20 Evansville R 33:59.2 10:57
620 2/7 Karen Ruthenburg F 58 Evansville R 33:59.9 10:57
621 39/47 Daniel Edwards M 28 R 34:01.3 10:58
622 38/43 Scott Debruin M 32 Newburgh R 34:02.7 10:58
623 39/43 Nathan Hughes M 33 Galveston R 34:03.5 10:58
624 32/33 Brian Montoya M 19 Evansville R 34:04.7 10:59
625 59/73 Stacy Shellhaas F 31 Evansville R 34:04.9 10:59
626 60/73 Brandy Garrett F 33 Carmel R 34:05.0 10:59
627 40/43 Tim Hanisch M 34 Evansville R 34:09.5 11:00
628 21/28 Lisa Martin F 46 Wadesville R 34:10.8 11:01
629 28/40 Will Goris M 7 Boonville R 34:10.9 11:01
630 27/30 Jim Goris M 45 Boonville R 34:11.5 11:01
631 61/73 Stacia Pruitt F 33 Boonville R 34:16.4 11:02
632 33/40 Bryan Diehl M 40 Newburgh R 34:16.6 11:02
633 3/7 Jane Leach F 59 Evansville R 34:19.1 11:03
634 28/30 Timothy Bryan M 49 Evansville R 34:19.9 11:03
635 36/42 Rachel Bryan F 16 Evansville R 34:20.5 11:04
636 21/34 Payton Broshears F 10 Evansville R 34:22.8 11:04
637 1/1 Leonard Elsfelder M 75 Evansville R 34:22.8 11:04
638 30/37 Catherine Broshea F 39 Evansville R 34:22.9 11:04
639 22/34 Amy Noble F 10 Marion R 34:26.1 11:05
640 34/40 Mike Barnett M 40 Newburgh R 34:32.0 11:07
641 23/34 McKenna Barnett F 12 Newburgh R 34:32.1 11:07
642 24/34 Abigail Martin F 13 San Antoni R 34:35.2 11:08
643 54/66 Jess Hobgood F 27 Evansville R 34:41.3 11:10
644 55/66 Julie Fuhs F 26 Evansville R 34:42.0 11:11
645 62/73 Rachel Spalding F 33 Evansville R 34:44.8 11:12
646 15/19 Glen Agler M 56 Evansville R 34:47.2 11:12
647 25/34 Mary Grace Fendri F 14 Mount Vern R 34:52.4 11:14
648 11/16 Faye Frankland F 52 Albion R 34:54.1 11:14
649 56/66 Hallie Denstorff F 25 Evansville R 34:57.4 11:16
650 31/37 Cara Gile F 38 Evansville R 34:58.1 11:16

Place Div/Tot Name S Ag City R Net Time Pace
===== ======== ================= = == ========== = ========= =====
651 10/13 Jim Kennedy M 60 Newburgh R 34:58.2 11:16
652 57/66 Jessica Sollman F 28 Elberfeld R 35:00.4 11:17
653 16/19 Mike Sollman M 58 Ft. Branch R 35:03.1 11:17
654 63/73 Lori Jones F 31 Cincinnati R 35:09.4 11:19
655 64/73 Stacy Partridge F 31 Braselton R 35:09.5 11:19
656 12/16 Mickie Wilsman F 54 Evansville R 35:09.7 11:20
657 39/45 Wendy Fodstad F 23 Evansville R 35:13.3 11:21
658 34/36 Dylan Barnes M 37 Evansville R 35:13.4 11:21
659 31/33 Jason Hubbard M 23 Evansville R 35:14.0 11:21
660 40/47 Ben Sollman M 29 Elberfeld R 35:14.6 11:21
661 29/40 Chance Goshinska M 10 Evansville R 35:15.8 11:21
662 58/66 Jennifer Hill F 27 Evansville R 35:16.0 11:22
663 41/47 Clinton Hill M 28 Evansville R 35:16.2 11:22
664 35/36 Larry Montgomery M 38 Newburgh R 35:16.8 11:22
665 30/40 Sam Shrode M 9 Newburgh R 35:26.9 11:25
666 29/30 Joe Shrode M 48 Newburgh R 35:27.3 11:25
667 41/43 Chris Carey M 31 Altamonte R 35:31.7 11:27
668 2/2 Carolyn Decker F 69 Boonville R 35:36.8 11:28
669 37/42 Kendel Rector F 17 Henderson R 35:36.9 11:28
670 38/42 Lauren Wright F 19 Nashville R 35:42.2 11:30
671 31/40 Wyatt Reasor M 9 Newburgh R 35:45.8 11:31
672 32/37 Andrea Richardson F 38 Boonville R 35:46.1 11:31
673 1/2 Becky Agler F 56 Evansville W 35:46.8 11:31
674 4/7 Linda Strupp F 56 Mt Vernon R 35:53.1 11:34
675 11/13 Greg Alvey M 62 R 35:54.8 11:34
676 2/3 Becky Lasher F 34 Evansville W 36:05.5 11:37
677 35/40 Craig Powell M 44 Austin R 36:07.4 11:38
678 26/39 Rebecca Roberts F 40 Mount Vern R 36:11.6 11:39
679 17/19 Michael Fendrich M 57 Mount Vern R 36:13.6 11:40
680 32/40 Austin Beyers M 11 Marietta R 36:14.7 11:40
681 26/34 Greta Raser F 11 Cincinnati R 36:23.1 11:43
682 13/16 Linda Fendrich F 52 Mount Vern R 36:24.4 11:44
683 39/42 Ruthanne Fendrich F 19 Mount Vern R 36:25.8 11:44
684 33/40 Mitchell Mattingl M 12 Evansville R 36:29.3 11:45
685 27/39 Patty Rosado F 41 Jonestown R 36:29.6 11:45
686 40/45 Maria White F 22 Evansville R 36:33.0 11:46
687 33/37 Lori Trapp F 36 Greenfield R 36:36.5 11:47
688 28/39 Brandi Scheller F 42 Evansville R 36:37.4 11:48
689 18/19 Peter Emery M 59 Evansville R 36:39.5 11:48
690 22/28 Josie Davis F 45 Poseyville R 36:43.6 11:50
691 34/37 Melanie Klipsch F 37 Evansville R 36:46.0 11:51
692 23/28 Jodi Monarch F 48 Newburgh R 36:49.1 11:52
693 36/40 James Cockrell M 43 Newburgh R 36:49.8 11:52
694 29/39 Angie Horner F 44 Albion R 36:55.4 11:54
695 42/47 Timothy Pigman M 28 Wadesville R 36:59.6 11:55
696 32/33 Brian Pigman M 21 Wadesville R 36:59.6 11:55
697 19/19 Bill Pigman M 56 Wadesville R 37:00.2 11:55
698 14/16 Mary Ann Allen F 51 Newburgh R 37:04.3 11:56
699 24/28 Pamela Moyes F 46 Henderson R 37:06.9 11:57
700 33/33 Scott Moyes M 24 Sebree R 37:07.0 11:57

Place Div/Tot Name S Ag City R Net Time Pace
===== ======== ================= = == ========== = ========= =====
701 40/42 Sarah Jane Fendri F 16 Mount Vern R 37:07.9 11:58
702 59/66 Alison Zint F 29 Chandler R 37:11.2 11:59
703 27/34 Emma Gile F 13 Evansville R 37:11.8 11:59
704 15/16 Marta Edmonson F 50 Evansville R 37:17.6 12:01
705 65/73 Mareila Yates F 31 R 37:33.0 12:06
706 42/43 Jason Yates M 33 R 37:33.2 12:06
707 7/7 Jack Diehl M 67 Evansville R 37:33.8 12:06
708 41/45 Lindsey Blankenbe F 20 Poseyville R 37:38.7 12:07
709 35/37 Amy Harris F 38 Evansville R 37:43.4 12:09
710 36/37 Lori Barth F 35 Evansville R 37:44.5 12:09
711 66/73 Dena Embrey F 30 Evansville R 37:45.7 12:10
712 28/34 Meagan Johnson F 14 Boonville R 37:46.6 12:10
713 Shannon Bradley F Newburgh R 38:09.2 12:17
714 60/66 Jodi Bittner F 28 Evansville R 38:10.0 12:18
715 34/40 Drew Richardson M 8 Boonville R 38:10.3 12:18
716 37/40 Chris Reasor M 44 Newburgh R 38:13.4 12:19
717 42/45 Mary Wildeman F 24 Evansville R 38:14.6 12:19
718 43/47 Nick Austin M 27 Evansville R 38:15.0 12:19
719 35/40 Berk Reasor M 9 Newburgh R 38:15.1 12:19
720 Turkey Runner R 38:20.6 12:21
721 30/39 Sarah Talley F 43 Evansville R 38:24.0 12:22
722 38/40 Adam Strouse M 40 Evansville R 38:26.9 12:23
723 43/45 Julia Devine F 24 Fort Branc R 38:27.6 12:23
724 2/3 Robert Schenk M 60 W 38:32.9 12:25
725 2/2 Lucy McCracken F 54 Evansville W 38:33.7 12:25
726 44/47 Nathan Wade M 29 Ft Branch R 38:39.5 12:27
727 39/40 Scott Karcher M 44 Bloomingto R 38:49.8 12:30
728 16/16 Vicki White F 53 Evansville R 39:05.3 12:35
729 67/73 Erin Cassell F 34 Sewanee R 39:18.7 12:40
730 45/47 Jeremy Turner M 27 R 39:20.9 12:40
731 61/66 Marie Dewolf F 29 Bloomingto R 39:56.0 12:52
732 36/36 Christopher Hetti M 36 Frankfort R 39:56.2 12:52
733 33/35 Mark Newkirk M 53 Vincennes R 39:59.5 12:53
734 5/7 Sandy Bailey F 59 Newburgh R 40:06.2 12:55
735 44/45 Ashley Bailey F 24 Newburgh R 40:10.7 12:56
736 68/73 Michelle Koester F 33 Evansville R 40:14.0 12:57
737 62/66 Alison Bond F 25 Evansville R 40:23.2 13:00
738 36/40 Luke Goris M 7 Boonville R 40:33.7 13:04
739 37/37 Kim Sweeney F 38 Fishers R 40:34.8 13:04
740 63/66 Valerie Eiler F 26 South Bend R 40:40.4 13:06
741 1/1 Dan Diehl M 38 W 40:42.2 13:07
742 46/47 Shaun Eiler M 29 South Bend R 40:42.6 13:07
743 69/73 Becky Knight F 34 Newburgh R 40:43.6 13:07
744 31/39 Lori Goris F 41 Boonville R 40:47.3 13:08
745 37/40 Joshua Bell M 11 Newburgh R 40:58.0 13:12
746 1/2 Frank Schierbaum M 33 Newburgh W 41:00.3 13:12
747 3/3 Carrie Shetler F 33 Evansville W 41:00.4 13:12
748 25/28 Kim Bell F 46 Newburgh R 41:04.0 13:14
749 29/34 Samantha Myers F 14 Evansville R 41:06.8 13:14
750 33/33 Derek Sheffield M 19 Marietta R 41:07.1 13:15

Place Div/Tot Name S Ag City R Net Time Pace
===== ======== ================= = == ========== = ========= =====
751 32/39 Laura Karcher F 42 Bloomingto R 41:10.1 13:16
752 30/34 MacKenzie Messier F 10 Milton R 41:21.9 13:19
753 31/34 Margeaux Messier F 9 Milton R 41:28.5 13:21
754 12/13 Jack Armstrong M 63 Fort Branc R 41:40.9 13:25
755 26/28 Terri Wade F 49 Evansville R 41:41.1 13:26
756 40/40 Timothy Ferrier M 41 Cincinnati R 41:47.0 13:27
757 33/39 Tara Webb F 43 Palatine R 41:48.3 13:28
758 34/39 Tricia Hollander F 42 Evansville R 42:04.3 13:33
759 35/39 Lauren Noble F 41 Marion R 42:25.5 13:40
760 38/40 Alex Ozete M 9 Evansville R 42:29.5 13:41
761 36/39 Mary Beth Ozete F 40 Evansville R 42:29.5 13:41
762 43/43 Ethan Carrel M 30 R 42:31.9 13:42
763 47/47 Matt Schneider M 25 R 42:35.0 13:43
764 70/73 Tennille Schell F 33 Evansville R 42:51.1 13:48
765 45/45 Keri Noll F 22 Evansville R 42:57.0 13:50
766 13/13 Elton Parker M 62 Carmi R 43:14.5 13:56
767 34/35 Jeff Johnson M 54 French Lic R 43:40.1 14:04
768 64/66 Melissa Bauer F 28 Evansville R 43:51.3 14:07
769 65/66 Meagan King F 25 Gary R 44:34.2 14:21
770 3/3 Ronald Hollander M 69 North Fort W 44:49.8 14:26
771 27/28 Tammy Messier F 46 Milton R 44:53.4 14:27
772 32/34 Alexa Albin F 10 Newburgh R 44:55.9 14:28
773 39/40 Ian Albin M 8 Newburgh R 44:57.4 14:29
774 37/39 Teri Hollander-Al F 44 Newburgh R 44:57.7 14:29
775 35/35 Dale Wright M 50 Evansville R 45:04.8 14:31
776 41/42 Claire Wright F 15 Evansville R 45:06.4 14:32
777 1/1 Kristin Hall F 27 Evansville W 45:36.7 14:41
778 1/1 Carlyn Greene M 43 Fort Branc W 45:36.9 14:41
779 6/7 Melodie Wise F 57 Sheridan R 46:07.2 14:51
780 71/73 Laura Tomes F 30 Evansville R 46:33.1 15:00
781 72/73 Courtney Jackson F 31 Evansville R 46:33.3 15:00
782 66/66 Jessica Harper F 26 Boonville R 47:11.4 15:12
783 73/73 Erin King F 31 Austin R 47:17.4 15:14
784 30/30 Robert Geiser M 45 Henderson R 47:38.5 15:21
785 1/1 Cherlene Calhoun F 45 Evansville W 48:25.6 15:36
786 38/39 Lisa Deutsch F 42 Evansville R 48:55.4 15:45
787 40/40 Walker Selby M 8 Newburgh R 48:56.8 15:46
788 42/42 Kim Kuehn F 18 Evansville R 48:57.7 15:46
789 39/39 Suzanne Selby F 40 Newburgh R 48:57.8 15:46
790 33/34 Mahala N. Bailey F 7 Rockport R 48:58.5 15:46
791 28/28 Laura Bailey F 45 Rockport R 48:59.7 15:47
792 7/7 Julie Fodstad F 57 R 49:15.0 15:52
793 1/1 Emmons Patzer M 56 Evansville W 50:18.6 16:12
794 2/2 Sammy Panzica M 34 South Bend W 50:23.9 16:14
795 2/2 Barbara Panzica F 57 South Bend W 54:09.7 17:26
796 34/34 Tiffany Taber F 13 Evansville R 56:06.7 18:04

15:12:34 12/12/2010 updated and corrected all turkey runners.

10:56:22 11/25/2010


Jump to Top


21st Old National Turkey Day Getaway 5k - Chip Timing
Evansville, IN
11/25/2010

********** 5K RUNNERS AWARDS LIST **********

********** FEMALE OVERALL 5K RUN RESULTS **********

Place O'All Name S Ag City St Net Time Pace Gun Time Pace
===== ===== ================= = == ============= == ========= ===== ========= =====
1 26 Brittany Karges F 21 18:43.9 6:02 18:43.9 6:02

********** MALE OVERALL 5K RUN RESULTS **********

Place O'All Name S Ag City St Net Time Pace Gun Time Pace
===== ===== ================= = == ============= == ========= ===== ========= =====
1 1 Ryan Witters M 22 Evansville IN 15:36.6 5:02 15:37.2 5:02



********** 5K WALKERS AWARDS LIST **********

********** FEMALE OVERALL 5K WALK RESULTS **********

Place O'All Name S Ag City St Net Time Pace Gun Time Pace
===== ===== ================= = == ============= == ========= ===== ========= =====
1 530 Linda Swonder F 50 Evansville IN 31:32.0 10:09 31:41.3 10:12
2 615 Cathy Aders F 33 Evansville IN 33:51.3 10:54 34:07.0 10:59
3 673 Becky Agler F 56 Evansville IN 35:46.8 11:31 36:26.0 11:44
4 676 Becky Lasher F 34 Evansville IN 36:05.5 11:37 36:14.3 11:40
5 725 Lucy McCracken F 54 Evansville IN 38:33.7 12:25 39:04.5 12:35
6 747 Carrie Shetler F 33 Evansville IN 41:00.4 13:12 41:51.4 13:29
7 777 Kristin Hall F 27 Evansville IN 45:36.7 14:41 46:55.8 15:07

********** MALE OVERALL 5K WALK RESULTS **********

Place O'All Name S Ag City St Net Time Pace Gun Time Pace
===== ===== ================= = == ============= == ========= ===== ========= =====
1 217 Drew Swonder M 47 Evansville IN 25:05.8 8:05 25:40.8 8:16
2 549 Ambrose Wilson Iv M 60 Midway KY 31:58.4 10:18 32:08.0 10:21
3 724 Robert Schenk M 60 38:32.9 12:25 38:51.1 12:31
4 741 Dan Diehl M 38 40:42.2 13:07 41:50.3 13:28
5 746 Frank Schierbaum M 33 Newburgh IN 41:00.3 13:12 41:51.0 13:29
6 770 Ronald Hollander M 69 North Fort My FL 44:49.8 14:26 45:52.3 14:46
7 778 Carlyn Greene M 43 Fort Branch IN 45:36.9 14:41 46:55.8 15:07

********** 5K AGE GROUP RUN RESULTS **********

********** FEMALE 5K RUN AGE GROUP: 1 - 14 **********

Place O'All Name S Ag City St Net Time Pace Gun Time Pace
===== ===== ================= = == ============= == ========= ===== ========= =====
1 107 Kate Hendrickson F 14 Boonville IN 22:48.3 7:21 22:52.2 7:22
2 169 Abby Dillman F 13 24:04.6 7:45 24:30.7 7:54
3 171 Alexia Voyles F 10 Newburgh IN 24:06.7 7:46 24:27.1 7:53
4 218 Taylor Krieg F 14 Pittsboro IN 25:06.5 8:05 25:20.8 8:10
5 263 Melanie Noble F 11 Marion IA 25:46.3 8:18 26:10.1 8:26

********** MALE 5K RUN AGE GROUP: 1 - 14 **********

Place O'All Name S Ag City St Net Time Pace Gun Time Pace
===== ===== ================= = == ============= == ========= ===== ========= =====
1 153 Shane Harper M 10 Haubstadt IN 23:51.6 7:41 23:53.8 7:42
2 189 William Spradlin M 13 Evansville IN 24:27.1 7:53 25:15.9 8:08
3 204 Jonathon Walton M 14 Evansville IN 24:52.1 8:01 25:52.1 8:20
4 232 Luke Mattern M 11 Wabash IN 25:21.1 8:10 26:06.0 8:25
5 255 Jacob Tresslar M 12 Evansville IN 25:35.8 8:15 25:51.3 8:20

********** FEMALE 5K RUN AGE GROUP: 15 - 19 **********

Place O'All Name S Ag City St Net Time Pace Gun Time Pace
===== ===== ================= = == ============= == ========= ===== ========= =====
1 47 Lauren Minor F 19 19:56.0 6:25 20:01.6 6:27
2 51 Kristen Gray F 18 Princeton IN 20:15.1 6:32 20:19.6 6:33
3 52 Amy Mattingly F 17 Chandler IN 20:16.2 6:32 20:17.4 6:32
4 58 Maria Mehringer F 15 20:51.4 6:43 20:54.4 6:44
5 59 Courtney Naas F 16 Cynthiana IN 20:54.8 6:44 21:03.2 6:47

********** MALE 5K RUN AGE GROUP: 15 - 19 **********

Place O'All Name S Ag City St Net Time Pace Gun Time Pace
===== ===== ================= = == ============= == ========= ===== ========= =====
1 6 Zac Garrard M 15 Owensboro KY 16:51.3 5:26 16:53.7 5:27
2 12 Cain Parker M 16 Petersburg IN 17:09.2 5:32 17:10.9 5:32
3 14 Zach Wilson M 17 17:11.8 5:33 17:11.8 5:33
4 15 Tyler Thread M 18 Evansville IN 17:15.4 5:34 17:15.4 5:34
5 17 Zack Martin M 15 San Antonio TX 17:43.9 5:43 17:44.3 5:43

********** FEMALE 5K RUN AGE GROUP: 20 - 24 **********

Place O'All Name S Ag City St Net Time Pace Gun Time Pace
===== ===== ================= = == ============= == ========= ===== ========= =====
1 29 Lacy Williams F 24 Haubstadt IN 18:48.3 6:04 18:50.2 6:04
2 35 Lauren Zeabart F 20 Fort Branch IN 19:11.6 6:11 19:13.6 6:12
3 44 Leslie Van Winkle F 23 Louisville KY 19:41.6 6:21 19:42.6 6:21
4 117 Heather McLaughli F 23 Boonville IN 23:04.9 7:26 23:08.9 7:28
5 120 Chelsea Sutton F 21 Evansville IN 23:08.1 7:27 23:27.3 7:33

********** MALE 5K RUN AGE GROUP: 20 - 24 **********

Place O'All Name S Ag City St Net Time Pace Gun Time Pace
===== ===== ================= = == ============= == ========= ===== ========= =====
1 3 Brian Joyce M 22 Evansville IN 15:52.3 5:07 15:53.1 5:07
2 4 Wes Camp M 20 Evansville IN 16:01.5 5:10 16:02.0 5:10
3 5 Matthew Martin M 20 Evansville IN 16:13.0 5:14 16:13.9 5:14
4 10 Andrew Walker M 22 Evansville IN 16:59.1 5:29 17:00.8 5:29
5 11 Andy Davidson M 20 Athens AL 17:06.2 5:31 17:06.7 5:31

********** FEMALE 5K RUN AGE GROUP: 25 - 29 **********

Place O'All Name S Ag City St Net Time Pace Gun Time Pace
===== ===== ================= = == ============= == ========= ===== ========= =====
1 53 Angela Reckelhoff F 29 20:21.4 6:34 20:24.1 6:34
2 65 Stephine Temple F 27 Jasper IN 21:22.4 6:53 22:24.5 7:13
3 69 Katie McKinney F 25 Evansville IN 21:34.8 6:57 21:40.5 6:59
4 77 Christina Frye F 27 Champaign IL 21:48.4 7:02 22:18.4 7:11
5 89 Franny Enzler F 25 22:09.8 7:09 22:16.2 7:11

********** MALE 5K RUN AGE GROUP: 25 - 29 **********

Place O'All Name S Ag City St Net Time Pace Gun Time Pace
===== ===== ================= = == ============= == ========= ===== ========= =====
1 2 Chris Hollinden M 28 15:45.6 5:05 15:46.6 5:05
2 7 Graham Paxton M 29 Evansville IN 16:53.7 5:27 16:54.4 5:27
3 16 Michael Carter M 25 Evansville IN 17:16.6 5:34 17:17.5 5:34
4 28 Nick Ivy M 27 Fort Branch IN 18:46.6 6:03 18:49.8 6:04
5 48 Jordan Wilkinson M 27 Evansville IN 20:03.4 6:28 20:05.9 6:29

********** FEMALE 5K RUN AGE GROUP: 30 - 34 **********

Place O'All Name S Ag City St Net Time Pace Gun Time Pace
===== ===== ================= = == ============= == ========= ===== ========= =====
1 100 Alisha Wargel F 32 Evansville IN 22:25.3 7:13 22:42.1 7:19
2 110 Jamie Van Dewalle F 30 Helena AR 22:50.3 7:22 22:58.4 7:24
3 112 Amanda McBride F 31 22:52.1 7:22 23:24.4 7:33
4 142 Emily Hesse F 34 Monticello KY 23:34.3 7:36 23:42.0 7:38
5 148 Rachel Stoelting F 30 Newburgh IN 23:40.9 7:38 24:20.2 7:50

********** MALE 5K RUN AGE GROUP: 30 - 34 **********

Place O'All Name S Ag City St Net Time Pace Gun Time Pace
===== ===== ================= = == ============= == ========= ===== ========= =====
1 36 Adam Shaffer M 33 Cincinnati OH 19:14.0 6:12 19:22.7 6:15
2 40 Bryce Dixon M 32 Newburgh IN 19:25.4 6:16 19:27.3 6:16
3 42 Jeremy Aydt M 32 Haubstadt IN 19:36.9 6:19 19:40.6 6:20
4 76 Aaron Staser M 32 Indianapolis IN 21:45.7 7:01 21:50.0 7:02
5 85 Shawn Spear M 32 Haubstadt IN 22:04.1 7:07 22:49.6 7:21

********** FEMALE 5K RUN AGE GROUP: 35 - 39 **********

Place O'All Name S Ag City St Net Time Pace Gun Time Pace
===== ===== ================= = == ============= == ========= ===== ========= =====
1 106 Krista McClure F 37 Evansville IN 22:47.2 7:21 23:00.1 7:25
2 114 Shelly Volz F 38 Boonville IN 22:58.1 7:24 23:02.2 7:25
3 123 Kimberly Castle F 35 Evansville IN 23:12.4 7:29 23:24.3 7:32
4 134 Marva Johnson F 35 Evansville IN 23:27.7 7:34 23:56.7 7:43
5 265 Cathy Ferris F 36 Evansville IN 25:49.2 8:19 26:02.8 8:24

********** MALE 5K RUN AGE GROUP: 35 - 39 **********

Place O'All Name S Ag City St Net Time Pace Gun Time Pace
===== ===== ================= = == ============= == ========= ===== ========= =====
1 57 Jason Moore M 36 Hazleton IN 20:48.8 6:42 21:31.2 6:56
2 64 Stephen Orsburn M 37 Newburgh IN 21:14.1 6:51 21:23.8 6:54
3 68 Kiley Van Bibber M 38 Haubstadt IN 21:33.9 6:57 21:39.3 6:59
4 87 Chad Trapp M 39 Greenfield IN 22:08.4 7:08 22:27.9 7:14
5 149 Scott Graves M 36 Evansville IN 23:42.9 7:38 23:55.3 7:42

********** FEMALE 5K RUN AGE GROUP: 40 - 44 **********

Place O'All Name S Ag City St Net Time Pace Gun Time Pace
===== ===== ================= = == ============= == ========= ===== ========= =====
1 193 Mary Jane Beckort F 41 Tell City IN 24:32.5 7:54 24:41.6 7:57
2 199 Karen Adams F 43 Fort Branch IN 24:48.3 8:00 25:29.5 8:13
3 200 Lori Kane F 44 Evansville IN 24:49.2 8:00 25:03.3 8:04
4 202 Anne Basden F 42 Evansville IN 24:51.3 8:00 25:06.0 8:05
5 230 Kristi Kimberlin F 42 Indianapolis IN 25:20.5 8:10 26:12.1 8:26

********** MALE 5K RUN AGE GROUP: 40 - 44 **********

Place O'All Name S Ag City St Net Time Pace Gun Time Pace
===== ===== ================= = == ============= == ========= ===== ========= =====
1 9 Dean Robert M 43 16:58.8 5:28 17:00.3 5:29
2 37 Kenny Heads M 44 Evansville IN 19:17.2 6:13 19:20.7 6:14
3 41 Wayne Ricketts M 43 19:32.4 6:18 19:32.4 6:18
4 50 Mike Shields M 44 San Antonio TX 20:13.1 6:31 20:16.7 6:32
5 60 Doug Hamner M 42 Evansville IN 20:58.7 6:46 21:13.3 6:50

********** FEMALE 5K RUN AGE GROUP: 45 - 49 **********

Place O'All Name S Ag City St Net Time Pace Gun Time Pace
===== ===== ================= = == ============= == ========= ===== ========= =====
1 237 Kendra Schoffstal F 47 Haubstadt IN 25:24.7 8:11 26:00.6 8:23
2 256 Suzanne Stetter F 48 Huntingburg IN 25:39.8 8:16 25:45.4 8:18
3 301 Joan Duggan F 46 Evansville IN 26:29.3 8:32 27:00.8 8:42
4 322 Amy Miller F 48 Evansville IN 27:06.9 8:44 27:33.5 8:53
5 341 Angee Casson F 46 Evansville IN 27:25.0 8:50 27:55.2 9:00

********** MALE 5K RUN AGE GROUP: 45 - 49 **********

Place O'All Name S Ag City St Net Time Pace Gun Time Pace
===== ===== ================= = == ============= == ========= ===== ========= =====
1 8 Shane Thread M 47 Evansville IN 16:55.5 5:27 16:58.0 5:28
2 49 Jim Schreifels M 48 Norris City IL 20:12.9 6:31 20:19.1 6:33
3 56 Eric Lovins M 47 Evansville IN 20:47.4 6:42 21:11.9 6:50
4 86 Scott Bourne M 48 Vicksburg MS 22:08.2 7:08 23:53.8 7:42
5 108 Bert Earley M 47 22:48.8 7:21 22:54.7 7:23

********** FEMALE 5K RUN AGE GROUP: 50 - 54 **********

Place O'All Name S Ag City St Net Time Pace Gun Time Pace
===== ===== ================= = == ============= == ========= ===== ========= =====
1 122 Julia Hudson F 53 Lockport IL 23:10.5 7:28 23:10.4 7:28
2 157 Tami Sparks F 53 Newburgh IN 23:55.4 7:42 23:58.2 7:43
3 329 Martha Immel F 50 Carmi IL 27:16.2 8:47 27:30.6 8:52
4 408 Susan Hopf F 53 Haubstadt IN 28:44.4 9:16 29:06.7 9:23
5 453 Lauren Jones F 50 Evansville IN 29:23.5 9:28 29:27.7 9:29

********** MALE 5K RUN AGE GROUP: 50 - 54 **********

Place O'All Name S Ag City St Net Time Pace Gun Time Pace
===== ===== ================= = == ============= == ========= ===== ========= =====
1 31 Timm Wallis M 50 18:54.1 6:06 18:54.1 6:06
2 66 Gary Mesplay M 51 Owensboro KY 21:29.5 6:56 21:36.4 6:58
3 71 Steven Titzer M 50 Evansville IN 21:38.9 6:59 21:42.7 7:00
4 97 William Hackney, M 53 Madisonville KY 22:18.4 7:11 22:21.7 7:12
5 113 Jim Schmidt M 50 Evansville IN 22:53.1 7:22 23:14.9 7:29

********** FEMALE 5K RUN AGE GROUP: 55 - 59 **********

Place O'All Name S Ag City St Net Time Pace Gun Time Pace
===== ===== ================= = == ============= == ========= ===== ========= =====
1 499 Julie Phillips F 55 Evansville IN 30:45.1 9:54 31:33.9 10:10
2 620 Karen Ruthenburg F 58 Evansville IN 33:59.9 10:57 34:46.9 11:12
3 633 Jane Leach F 59 Evansville IN 34:19.1 11:03 35:12.7 11:20
4 674 Linda Strupp F 56 Mt Vernon IN 35:53.1 11:34 36:44.1 11:50
5 734 Sandy Bailey F 59 Newburgh IN 40:06.2 12:55 40:47.2 13:08

********** MALE 5K RUN AGE GROUP: 55 - 59 **********

Place O'All Name S Ag City St Net Time Pace Gun Time Pace
===== ===== ================= = == ============= == ========= ===== ========= =====
1 78 Ben Laaper M 58 Newburgh IN 21:50.9 7:02 22:05.3 7:07
2 90 Dave Enzler M 58 22:10.0 7:09 22:16.3 7:11
3 145 Chuck Wingert M 58 Evansville IN 23:37.8 7:37 23:49.7 7:41
4 173 Patrick Shoulders M 57 Evansville IN 24:10.1 7:47 24:16.8 7:49
5 195 Gene Koch M 55 Newburgh IN 24:39.3 7:57 24:46.4 7:59

********** FEMALE 5K RUN AGE GROUP: 60 - 64 **********

Place O'All Name S Ag City St Net Time Pace Gun Time Pace
===== ===== ================= = == ============= == ========= ===== ========= =====
1 317 Karen Carey F 60 Evansville IN 26:53.3 8:40 27:35.4 8:53
2 443 Deedra Benthall F 64 Danville KY 29:16.8 9:26 29:24.6 9:28
3 512 Clare Ruthenburg F 62 Portland ME 31:00.1 9:59 31:48.0 10:15
4 579 Elizabeth Kessler F 63 Evansville IN 33:08.4 10:40 33:25.8 10:46

********** MALE 5K RUN AGE GROUP: 60 - 64 **********

Place O'All Name S Ag City St Net Time Pace Gun Time Pace
===== ===== ================= = == ============= == ========= ===== ========= =====
1 94 Bill Noll M 62 Evansville IN 22:15.2 7:10 22:17.7 7:11
2 111 Randy Edwards M 60 Evansville IN 22:51.2 7:22 22:58.1 7:24
3 156 Darrell Heineman M 63 Evansville IN 23:54.4 7:42 24:01.6 7:44
4 225 Bill Egli M 60 25:12.7 8:07 25:19.8 8:10
5 262 Paul E. McAuliffe M 61 Evansville IN 25:46.3 8:18 26:09.3 8:26

********** FEMALE 5K RUN AGE GROUP: 65 - 69 **********

Place O'All Name S Ag City St Net Time Pace Gun Time Pace
===== ===== ================= = == ============= == ========= ===== ========= =====
1 540 Annie Phillips F 67 Chandler IN 31:45.5 10:14 31:53.7 10:16
2 668 Carolyn Decker F 69 Boonville IN 35:36.8 11:28 36:19.9 11:42

********** MALE 5K RUN AGE GROUP: 65 - 69 **********

Place O'All Name S Ag City St Net Time Pace Gun Time Pace
===== ===== ================= = == ============= == ========= ===== ========= =====
1 177 Robert Claridge M 69 Oakland City IN 24:12.6 7:48 24:20.0 7:50
2 210 Mike Van Cleve M 66 Mount Vernon IN 24:58.6 8:03 25:33.1 8:14
3 238 Ray Stuckey M 68 Patoka IN 25:24.8 8:11 25:31.6 8:13
4 428 Philip Lieberman M 65 Evansville IN 29:01.5 9:21 30:06.6 9:42
5 597 David Orsburn M 67 Newburgh IN 33:28.7 10:47 34:36.3 11:09

********** FEMALE 5K RUN AGE GROUP: 70 - 99 **********

Place O'All Name S Ag City St Net Time Pace Gun Time Pace
===== ===== ================= = == ============= == ========= ===== ========= =====
1 517 Genevieve Perry F 73 Evansville IN 31:06.8 10:01 31:10.9 10:03

********** MALE 5K RUN AGE GROUP: 70 - 99 **********

Place O'All Name S Ag City St Net Time Pace Gun Time Pace
===== ===== ================= = == ============= == ========= ===== ========= =====
1 637 Leonard Elsfelder M 75 Evansville IN 34:22.8 11:04 34:54.6 11:15


Jump to Top